createdAt,value
2018-07-23T00:02:11.347Z,18.90
2018-07-23T00:04:40.007Z,18.80
2018-07-23T00:07:08.619Z,18.80
2018-07-23T00:09:37.201Z,18.80
2018-07-23T00:12:12.269Z,18.80
2018-07-23T00:14:40.977Z,18.70
2018-07-23T00:17:09.760Z,18.70
2018-07-23T00:19:38.436Z,18.60
2018-07-23T00:22:07.571Z,18.60
2018-07-23T00:24:36.526Z,18.60
2018-07-23T00:27:05.122Z,18.60
2018-07-23T00:32:02.074Z,18.50
2018-07-23T00:34:30.907Z,18.50
2018-07-23T00:36:59.547Z,18.50
2018-07-23T00:39:28.299Z,18.40
2018-07-23T00:41:56.934Z,18.40
2018-07-23T00:44:25.691Z,18.40
2018-07-23T00:46:54.404Z,18.40
2018-07-23T00:49:23.081Z,18.30
2018-07-23T00:51:51.842Z,18.30
2018-07-23T00:54:20.392Z,18.30
2018-07-23T00:56:50.235Z,18.30
2018-07-23T00:59:18.817Z,18.20
2018-07-23T01:01:47.466Z,18.20
2018-07-23T01:04:16.054Z,18.10
2018-07-23T01:06:44.664Z,18.10
2018-07-23T01:09:13.244Z,18.00
2018-07-23T01:11:41.961Z,18.00
2018-07-23T01:14:10.537Z,18.00
2018-07-23T01:16:39.158Z,18.00
2018-07-23T01:19:07.847Z,18.00
2018-07-23T01:21:36.648Z,18.00
2018-07-23T01:24:05.239Z,18.00
2018-07-23T01:26:33.934Z,18.00
2018-07-23T01:29:02.560Z,17.90
2018-07-23T01:31:31.187Z,17.80
2018-07-23T01:33:59.819Z,17.80
2018-07-23T01:36:28.407Z,17.70
2018-07-23T01:38:57.070Z,17.70
2018-07-23T01:41:25.695Z,17.70
2018-07-23T01:43:54.301Z,17.70
2018-07-23T01:46:23.006Z,17.70
2018-07-23T01:48:51.712Z,17.70
2018-07-23T01:51:20.312Z,17.60
2018-07-23T01:53:48.863Z,17.50
2018-07-23T01:56:17.543Z,17.40
2018-07-23T01:58:46.216Z,17.40
2018-07-23T02:01:14.890Z,17.30
2018-07-23T02:03:43.525Z,17.30
2018-07-23T02:06:12.280Z,17.30
2018-07-23T02:08:40.936Z,17.40
2018-07-23T02:11:09.584Z,17.40
2018-07-23T02:13:38.168Z,17.40
2018-07-23T02:16:06.743Z,17.50
2018-07-23T02:18:35.363Z,17.50
2018-07-23T02:21:03.954Z,17.50
2018-07-23T02:23:32.552Z,17.40
2018-07-23T02:26:01.182Z,17.40
2018-07-23T02:28:29.819Z,17.40
2018-07-23T02:30:58.476Z,17.40
2018-07-23T02:33:27.052Z,17.40
2018-07-23T02:35:55.726Z,17.30
2018-07-23T02:38:24.303Z,17.30
2018-07-23T02:40:52.964Z,17.30
2018-07-23T02:43:21.561Z,17.30
2018-07-23T02:45:50.198Z,17.20
2018-07-23T02:48:18.864Z,17.10
2018-07-23T02:50:47.540Z,17.00
2018-07-23T02:53:16.203Z,17.00
2018-07-23T02:55:44.811Z,17.00
2018-07-23T02:58:13.518Z,17.00
2018-07-23T03:00:42.182Z,17.00
2018-07-23T03:03:11.057Z,17.00
2018-07-23T03:05:39.772Z,16.90
2018-07-23T03:08:08.408Z,16.80
2018-07-23T03:10:36.966Z,16.80
2018-07-23T03:13:06.051Z,16.80
2018-07-23T03:15:34.675Z,16.70
2018-07-23T03:18:03.453Z,16.70
2018-07-23T03:20:32.325Z,16.60
2018-07-23T03:23:00.981Z,16.70
2018-07-23T03:25:29.920Z,16.70
2018-07-23T03:27:58.814Z,16.80
2018-07-23T03:30:27.747Z,16.80
2018-07-23T03:32:56.342Z,16.80
2018-07-23T03:35:24.896Z,16.90
2018-07-23T03:37:53.633Z,16.90
2018-07-23T03:40:22.392Z,16.90
2018-07-23T03:42:51.064Z,17.00
2018-07-23T03:45:19.780Z,17.00
2018-07-23T03:47:48.415Z,17.10
2018-07-23T03:50:17.051Z,17.10
2018-07-23T03:52:45.806Z,17.20
2018-07-23T03:55:14.441Z,17.20
2018-07-23T03:57:43.131Z,17.30
2018-07-23T04:00:11.852Z,17.40
2018-07-23T04:02:40.568Z,17.50
2018-07-23T04:05:09.262Z,17.60
2018-07-23T04:07:37.976Z,17.60
2018-07-23T04:10:06.834Z,17.60
2018-07-23T04:12:35.449Z,17.60
2018-07-23T04:15:04.134Z,17.80
2018-07-23T04:17:32.793Z,17.90
2018-07-23T04:20:01.354Z,18.10
2018-07-23T04:22:30.169Z,18.30
2018-07-23T04:24:58.786Z,18.50
2018-07-23T04:29:55.682Z,18.70
2018-07-23T04:32:24.292Z,19.00
2018-07-23T04:34:53.427Z,19.10
2018-07-23T04:37:22.042Z,19.30
2018-07-23T04:39:50.680Z,19.40
2018-07-23T04:42:19.414Z,19.40
2018-07-23T04:44:48.044Z,19.50
2018-07-23T04:47:16.691Z,19.40
2018-07-23T04:49:45.363Z,19.50
2018-07-23T04:52:14.035Z,19.50
2018-07-23T04:54:42.652Z,19.50
2018-07-23T04:57:11.486Z,19.70
2018-07-23T04:59:40.131Z,19.70
2018-07-23T05:02:09.144Z,19.90
2018-07-23T05:04:37.880Z,20.00
2018-07-23T05:07:06.426Z,20.00
2018-07-23T05:09:41.770Z,20.20
2018-07-23T05:12:10.393Z,20.30
2018-07-23T05:14:38.992Z,20.60
2018-07-23T05:17:07.591Z,20.70
2018-07-23T05:19:36.184Z,20.70
2018-07-23T05:22:04.818Z,21.00
2018-07-23T05:24:33.552Z,21.30
2018-07-23T05:27:02.235Z,21.60
2018-07-23T05:29:30.845Z,21.80
2018-07-23T05:31:59.545Z,21.90
2018-07-23T05:34:28.144Z,22.30
2018-07-23T05:36:56.859Z,22.80
2018-07-23T05:39:25.546Z,22.90
2018-07-23T05:41:54.052Z,23.10
2018-07-23T05:44:22.857Z,23.40
2018-07-23T05:46:51.473Z,23.90
2018-07-23T05:49:20.229Z,25.20
2018-07-23T05:51:48.878Z,25.60
2018-07-23T05:54:17.459Z,26.60
2018-07-23T05:56:46.453Z,26.60
2018-07-23T05:59:15.109Z,27.80
2018-07-23T06:01:43.786Z,27.90
2018-07-23T06:04:12.420Z,27.90
2018-07-23T06:06:41.003Z,26.80
2018-07-23T06:09:10.582Z,27.50
2018-07-23T06:11:39.180Z,28.00
2018-07-23T06:14:07.941Z,29.10
2018-07-23T06:16:36.558Z,30.80
2018-07-23T06:19:05.131Z,33.30
2018-07-23T06:21:33.916Z,33.20
2018-07-23T06:24:02.564Z,33.40
2018-07-23T06:28:59.729Z,35.10
2018-07-23T06:31:28.301Z,35.40
2018-07-23T06:33:56.894Z,36.10
2018-07-23T06:36:25.709Z,36.00
2018-07-23T06:38:54.476Z,36.70
2018-07-23T06:43:51.794Z,35.10
2018-07-23T06:46:20.714Z,35.10
2018-07-23T06:48:49.418Z,35.40
2018-07-23T06:51:18.194Z,35.80
2018-07-23T06:53:46.964Z,33.50
2018-07-23T06:56:15.666Z,33.10
2018-07-23T06:58:44.300Z,32.60
2018-07-23T07:01:12.920Z,31.80
2018-07-23T07:03:41.607Z,31.40
2018-07-23T07:06:10.265Z,31.60
2018-07-23T07:08:39.267Z,31.30
2018-07-23T07:11:07.877Z,30.70
2018-07-23T07:13:36.481Z,31.70
2018-07-23T07:16:05.068Z,30.80
2018-07-23T07:18:33.589Z,30.30
2018-07-23T07:21:02.179Z,29.30
2018-07-23T07:23:30.662Z,29.70
2018-07-23T07:25:59.389Z,29.40
2018-07-23T07:28:28.085Z,29.50
2018-07-23T07:30:56.750Z,29.40
2018-07-23T07:33:25.498Z,29.50
2018-07-23T07:35:54.150Z,29.60
2018-07-23T07:38:23.272Z,29.70
2018-07-23T07:40:51.963Z,29.20
2018-07-23T07:43:20.957Z,29.80
2018-07-23T07:45:49.759Z,29.30
2018-07-23T07:48:18.408Z,30.00
2018-07-23T07:50:47.243Z,30.30
2018-07-23T07:53:16.100Z,29.50
2018-07-23T07:55:44.878Z,28.80
2018-07-23T07:58:13.498Z,29.10
2018-07-23T08:00:42.106Z,29.80
2018-07-23T08:03:10.802Z,29.30
2018-07-23T08:05:39.597Z,29.40
2018-07-23T08:08:08.313Z,29.30
2018-07-23T08:10:37.102Z,29.60
2018-07-23T08:13:05.844Z,29.00
2018-07-23T08:15:34.563Z,29.00
2018-07-23T08:18:03.436Z,29.10
2018-07-23T08:20:32.480Z,29.60
2018-07-23T08:23:01.625Z,30.40
2018-07-23T08:25:30.402Z,30.00
2018-07-23T08:27:59.101Z,31.30
2018-07-23T08:30:27.870Z,32.90
2018-07-23T08:32:56.417Z,33.20
2018-07-23T08:35:25.129Z,32.30
2018-07-23T08:37:53.755Z,33.40
2018-07-23T08:42:50.784Z,34.40
2018-07-23T08:45:19.485Z,36.00
2018-07-23T08:47:48.300Z,35.80
2018-07-23T08:50:17.876Z,36.10
2018-07-23T08:52:46.417Z,37.60
2018-07-23T08:55:15.012Z,38.60
2018-07-23T08:57:43.662Z,39.60
2018-07-23T09:00:12.357Z,38.40
2018-07-23T09:02:40.993Z,38.80
2018-07-23T09:05:09.691Z,39.40
2018-07-23T09:07:38.464Z,41.40
2018-07-23T09:10:07.714Z,39.90
2018-07-23T09:12:36.500Z,39.80
2018-07-23T09:15:05.792Z,39.80
2018-07-23T09:17:34.728Z,38.60
2018-07-23T09:20:04.781Z,39.00
2018-07-23T09:22:34.650Z,38.30
2018-07-23T09:25:03.472Z,38.70
2018-07-23T09:27:33.147Z,38.20
2018-07-23T09:30:02.372Z,38.80
2018-07-23T09:32:30.995Z,37.80
2018-07-23T09:35:00.541Z,39.80
2018-07-23T09:37:29.651Z,38.70
2018-07-23T09:39:58.513Z,39.70
2018-07-23T09:42:27.039Z,38.40
2018-07-23T09:44:55.696Z,37.50
2018-07-23T09:47:26.348Z,36.10
2018-07-23T09:49:55.007Z,35.90
2018-07-23T09:52:23.682Z,36.10
2018-07-23T09:54:52.380Z,35.00
2018-07-23T09:57:20.993Z,35.20
2018-07-23T09:59:49.629Z,34.90
2018-07-23T10:04:46.480Z,35.40
2018-07-23T10:07:15.697Z,34.30
2018-07-23T10:09:44.399Z,33.90
2018-07-23T10:12:13.286Z,34.00
2018-07-23T10:14:41.995Z,34.10
2018-07-23T10:17:10.657Z,34.70
2018-07-23T10:19:39.325Z,34.70
2018-07-23T10:22:09.103Z,33.60
2018-07-23T10:24:37.796Z,33.00
2018-07-23T10:27:06.729Z,33.60
2018-07-23T10:29:35.368Z,34.30
2018-07-23T10:32:04.178Z,34.00
2018-07-23T10:34:32.784Z,33.90
2018-07-23T10:37:01.862Z,34.50
2018-07-23T10:39:30.616Z,33.60
2018-07-23T10:41:59.345Z,33.70
2018-07-23T10:44:28.007Z,33.50
2018-07-23T10:46:56.582Z,33.60
2018-07-23T10:49:25.338Z,33.80
2018-07-23T10:51:54.342Z,33.90
2018-07-23T10:54:23.268Z,33.30
2018-07-23T10:56:52.022Z,34.00
2018-07-23T10:59:20.760Z,34.50
2018-07-23T11:01:49.400Z,35.30
2018-07-23T11:04:18.239Z,34.80
2018-07-23T11:06:46.779Z,33.90
2018-07-23T11:09:16.222Z,32.90
2018-07-23T11:11:44.770Z,32.50
2018-07-23T11:14:13.361Z,32.60
2018-07-23T11:16:42.009Z,32.30
2018-07-23T11:19:10.582Z,32.00
2018-07-23T11:21:39.055Z,31.40
2018-07-23T11:24:07.655Z,31.90
2018-07-23T11:26:36.346Z,31.60
2018-07-23T11:29:04.860Z,32.00
2018-07-23T11:31:33.313Z,32.60
2018-07-23T11:34:01.848Z,32.50
2018-07-23T11:36:30.516Z,32.30
2018-07-23T11:38:59.136Z,32.20
2018-07-23T11:41:27.858Z,31.90
2018-07-23T11:43:56.459Z,31.60
2018-07-23T11:46:25.314Z,31.90
2018-07-23T11:48:53.744Z,32.10
2018-07-23T11:51:22.390Z,32.20
2018-07-23T11:53:51.730Z,32.10
2018-07-23T11:56:21.140Z,31.80
2018-07-23T11:58:51.792Z,31.50
2018-07-23T12:01:20.528Z,31.50
2018-07-23T12:03:49.084Z,31.40
2018-07-23T12:06:17.740Z,31.50
2018-07-23T12:08:46.443Z,31.60
2018-07-23T12:11:14.926Z,31.90
2018-07-23T12:13:43.507Z,32.30
2018-07-23T12:16:12.017Z,32.40
2018-07-23T12:18:40.704Z,32.70
2018-07-23T12:21:09.453Z,32.60
2018-07-23T12:23:38.068Z,32.70
2018-07-23T12:26:07.277Z,32.20
2018-07-23T12:28:35.866Z,30.90
2018-07-23T12:33:32.911Z,31.30
2018-07-23T12:36:01.447Z,31.60
2018-07-23T12:38:30.024Z,31.90
2018-07-23T12:40:58.579Z,32.30
2018-07-23T12:43:27.112Z,32.50
2018-07-23T12:45:56.477Z,32.10
2018-07-23T12:48:25.096Z,31.40
2018-07-23T12:50:53.681Z,32.00
2018-07-23T12:53:22.290Z,32.50
2018-07-23T12:55:50.795Z,32.60
2018-07-23T12:58:19.279Z,32.30
2018-07-23T13:00:47.869Z,32.50
2018-07-23T13:03:16.411Z,32.70
2018-07-23T13:08:13.331Z,32.60
2018-07-23T13:10:41.992Z,32.40
2018-07-23T13:15:38.816Z,32.30
2018-07-23T13:18:07.633Z,32.40
2018-07-23T13:20:36.289Z,32.80
2018-07-23T13:23:04.968Z,32.50
2018-07-23T13:25:33.608Z,32.50
2018-07-23T13:28:02.366Z,31.80
2018-07-23T13:30:31.018Z,31.70
2018-07-23T13:32:59.544Z,32.20
2018-07-23T13:35:28.097Z,32.80
2018-07-23T13:37:56.872Z,32.80
2018-07-23T13:40:25.550Z,32.80
2018-07-23T13:42:54.040Z,33.00
2018-07-23T13:45:22.875Z,32.60
2018-07-23T13:47:51.727Z,32.00
2018-07-23T13:50:21.356Z,31.80
2018-07-23T13:52:49.930Z,31.60
2018-07-23T13:55:18.381Z,32.00
2018-07-23T13:57:48.462Z,32.80
2018-07-23T14:00:17.063Z,32.00
2018-07-23T14:02:45.561Z,31.60
2018-07-23T14:05:14.150Z,31.60
2018-07-23T14:07:43.005Z,31.80
2018-07-23T14:10:11.593Z,31.90
2018-07-23T14:12:40.197Z,32.10
2018-07-23T14:15:09.499Z,32.00
2018-07-23T14:20:06.452Z,32.10
2018-07-23T14:22:35.369Z,32.40
2018-07-23T14:25:03.877Z,32.40
2018-07-23T14:30:01.979Z,31.90
2018-07-23T14:32:32.198Z,31.60
2018-07-23T14:35:00.820Z,31.60
2018-07-23T14:37:30.348Z,31.50
2018-07-23T14:39:59.012Z,31.30
2018-07-23T14:42:28.044Z,31.30
2018-07-23T14:47:25.272Z,30.90
2018-07-23T14:52:29.701Z,30.60
2018-07-23T14:55:00.204Z,30.60
2018-07-23T14:57:28.896Z,30.80
2018-07-23T14:59:57.588Z,30.80
2018-07-23T15:02:26.348Z,30.30
2018-07-23T15:07:23.179Z,31.00
2018-07-23T15:09:51.839Z,31.00
2018-07-23T15:12:20.420Z,31.30
2018-07-23T15:14:49.026Z,31.40
2018-07-23T15:19:45.858Z,31.80
2018-07-23T15:22:14.414Z,31.80
2018-07-23T15:24:43.028Z,32.00
2018-07-23T15:27:11.643Z,31.70
2018-07-23T15:29:40.353Z,31.80
2018-07-23T15:32:08.979Z,31.80
2018-07-23T15:34:37.614Z,32.00
2018-07-23T15:37:06.252Z,31.80
2018-07-23T15:39:34.964Z,32.00
2018-07-23T15:42:03.840Z,31.50
2018-07-23T15:44:32.791Z,31.50
2018-07-23T15:47:01.262Z,31.20
2018-07-23T15:49:29.987Z,31.40
2018-07-23T15:54:26.915Z,31.50
2018-07-23T15:56:55.425Z,31.70
2018-07-23T15:59:24.057Z,31.70
2018-07-23T16:01:52.884Z,31.50
2018-07-23T16:04:21.439Z,31.40
2018-07-23T16:06:50.000Z,31.20
2018-07-23T16:09:18.911Z,31.40
2018-07-23T16:11:47.649Z,31.30
2018-07-23T16:14:16.422Z,31.40
2018-07-23T16:16:45.439Z,31.40
2018-07-23T16:19:14.234Z,31.50
2018-07-23T16:21:43.121Z,30.50
2018-07-23T16:24:11.733Z,30.40
2018-07-23T16:26:40.564Z,30.80
2018-07-23T16:29:09.280Z,31.00
2018-07-23T16:31:37.821Z,30.80
2018-07-23T16:34:06.447Z,31.00
2018-07-23T16:36:34.948Z,30.80
2018-07-23T16:39:04.538Z,31.00
2018-07-23T16:41:33.240Z,30.60
2018-07-23T16:44:01.930Z,30.60
2018-07-23T16:46:30.474Z,30.60
2018-07-23T16:51:27.485Z,30.30
2018-07-23T16:53:56.329Z,30.10
2018-07-23T16:56:25.227Z,30.40
2018-07-23T16:58:53.777Z,30.60
2018-07-23T17:01:22.745Z,30.60
2018-07-23T17:03:51.355Z,30.50
2018-07-23T17:06:20.053Z,30.60
2018-07-23T17:08:48.658Z,30.50
2018-07-23T17:13:45.564Z,30.50
2018-07-23T17:16:14.612Z,30.10
2018-07-23T17:18:43.186Z,30.30
2018-07-23T17:21:11.870Z,30.30
2018-07-23T17:23:40.541Z,29.90
2018-07-23T17:26:09.233Z,29.80
2018-07-23T17:28:37.870Z,29.70
2018-07-23T17:31:06.926Z,29.60
2018-07-23T17:33:35.583Z,29.60
2018-07-23T17:36:04.476Z,29.60
2018-07-23T17:38:33.310Z,29.50
2018-07-23T17:41:01.987Z,29.50
2018-07-23T17:43:30.723Z,29.50
2018-07-23T17:45:59.488Z,29.50
2018-07-23T17:48:28.308Z,29.50
2018-07-23T17:50:56.977Z,29.50
2018-07-23T17:53:26.165Z,29.50
2018-07-23T17:55:54.876Z,29.30
2018-07-23T17:58:25.807Z,29.30
2018-07-23T18:00:56.612Z,29.20
2018-07-23T18:03:25.498Z,29.10
2018-07-23T18:05:54.148Z,28.90
2018-07-23T18:08:25.126Z,28.80
2018-07-23T18:10:53.794Z,28.70
2018-07-23T18:13:22.350Z,28.60
2018-07-23T18:15:51.098Z,28.60
2018-07-23T18:20:48.616Z,28.50
2018-07-23T18:23:17.333Z,28.40
2018-07-23T18:25:46.222Z,28.30
2018-07-23T18:28:14.803Z,28.20
2018-07-23T18:30:43.479Z,28.20
2018-07-23T18:33:12.336Z,28.10
2018-07-23T18:35:40.931Z,28.10
2018-07-23T18:38:09.727Z,28.00
2018-07-23T18:40:38.402Z,27.90
2018-07-23T18:43:07.097Z,27.90
2018-07-23T18:45:35.843Z,27.80
2018-07-23T18:48:14.491Z,27.70
2018-07-23T18:50:43.223Z,27.60
2018-07-23T18:53:20.939Z,27.50
2018-07-23T18:55:49.694Z,27.40
2018-07-23T18:58:18.273Z,27.40
2018-07-23T19:00:46.965Z,27.30
2018-07-23T19:03:15.590Z,27.20
2018-07-23T19:05:45.376Z,27.10
2018-07-23T19:08:13.981Z,27.00
2018-07-23T19:10:42.648Z,26.90
2018-07-23T19:13:11.239Z,26.80
2018-07-23T19:15:39.779Z,26.60
2018-07-23T19:18:08.397Z,26.50
2018-07-23T19:20:37.030Z,26.30
2018-07-23T19:23:05.771Z,26.20
2018-07-23T19:25:34.396Z,26.10
2018-07-23T19:28:03.057Z,25.90
2018-07-23T19:30:31.693Z,25.80
2018-07-23T19:33:00.306Z,25.80
2018-07-23T19:35:29.017Z,25.70
2018-07-23T19:37:57.642Z,25.60
2018-07-23T19:40:26.155Z,25.50
2018-07-23T19:42:54.851Z,25.40
2018-07-23T19:45:23.526Z,25.20
2018-07-23T19:47:52.312Z,25.20
2018-07-23T19:50:21.057Z,25.10
2018-07-23T19:52:49.811Z,25.00
2018-07-23T19:55:18.702Z,24.90
2018-07-23T19:57:47.430Z,24.90
2018-07-23T20:00:16.012Z,24.90
2018-07-23T20:02:44.715Z,24.70
2018-07-23T20:05:13.559Z,24.60
2018-07-23T20:10:24.021Z,24.40
2018-07-23T20:12:52.613Z,24.30
2018-07-23T20:15:21.212Z,24.20
2018-07-23T20:17:50.207Z,24.10
2018-07-23T20:20:18.768Z,24.10
2018-07-23T20:22:47.388Z,24.00
2018-07-23T20:25:16.386Z,23.90
2018-07-23T20:27:45.051Z,24.00
2018-07-23T20:30:13.767Z,23.90
2018-07-23T20:32:42.401Z,23.80
2018-07-23T20:35:11.092Z,23.70
2018-07-23T20:37:39.757Z,23.70
2018-07-23T20:40:08.354Z,23.60
2018-07-23T20:42:36.964Z,23.60
2018-07-23T20:45:05.680Z,23.50
2018-07-23T20:47:34.356Z,23.40
2018-07-23T20:50:02.937Z,23.50
2018-07-23T20:52:31.648Z,23.40
2018-07-23T20:55:00.241Z,23.30
2018-07-23T20:57:28.820Z,23.30
2018-07-23T20:59:57.575Z,23.20
2018-07-23T21:02:26.269Z,23.20
2018-07-23T21:04:54.966Z,23.10
2018-07-23T21:07:23.612Z,23.10
2018-07-23T21:09:52.238Z,23.10
2018-07-23T21:12:20.953Z,23.00
2018-07-23T21:14:49.551Z,22.90
2018-07-23T21:17:18.225Z,22.80
2018-07-23T21:19:47.014Z,22.80
2018-07-23T21:22:15.662Z,22.80
2018-07-23T21:24:44.232Z,22.70
2018-07-23T21:27:12.851Z,22.70
2018-07-23T21:29:41.863Z,22.70
2018-07-23T21:32:10.551Z,22.60
2018-07-23T21:34:39.114Z,22.60
2018-07-23T21:37:07.691Z,22.50
2018-07-23T21:39:36.331Z,22.40
2018-07-23T21:42:04.890Z,22.30
2018-07-23T21:44:33.486Z,22.30
2018-07-23T21:47:02.112Z,22.20
2018-07-23T21:49:30.689Z,22.20
2018-07-23T21:52:01.100Z,22.10
2018-07-23T21:54:30.061Z,22.10
2018-07-23T21:56:58.635Z,22.10
2018-07-23T21:59:27.221Z,22.00
2018-07-23T22:01:55.884Z,22.00
2018-07-23T22:04:24.422Z,21.90
2018-07-23T22:06:52.966Z,21.90
2018-07-23T22:09:21.595Z,21.80
2018-07-23T22:11:50.150Z,21.80
2018-07-23T22:14:18.719Z,21.70
2018-07-23T22:16:48.946Z,21.70
2018-07-23T22:19:17.495Z,21.60
2018-07-23T22:21:46.032Z,21.60
2018-07-23T22:24:14.641Z,21.60
2018-07-23T22:26:43.213Z,21.60
2018-07-23T22:29:11.838Z,21.60
2018-07-23T22:31:40.380Z,21.50
2018-07-23T22:34:08.929Z,21.50
2018-07-23T22:36:37.458Z,21.40
2018-07-23T22:39:08.781Z,21.40
2018-07-23T22:41:37.793Z,21.40
2018-07-23T22:44:06.375Z,21.40
2018-07-23T22:46:35.061Z,21.30
2018-07-23T22:49:03.609Z,21.30
2018-07-23T22:51:32.366Z,21.30
2018-07-23T22:54:01.023Z,21.30
2018-07-23T22:56:29.635Z,21.30
2018-07-23T22:58:58.215Z,21.30
2018-07-23T23:01:26.808Z,21.30
2018-07-23T23:03:55.398Z,21.20
2018-07-23T23:06:23.963Z,21.20
2018-07-23T23:08:52.548Z,21.20
2018-07-23T23:11:21.095Z,21.20
2018-07-23T23:13:49.640Z,21.10
2018-07-23T23:16:18.143Z,21.10
2018-07-23T23:18:46.620Z,21.00
2018-07-23T23:21:15.151Z,21.00
2018-07-23T23:23:44.722Z,21.00
2018-07-23T23:26:13.357Z,21.00
2018-07-23T23:28:41.976Z,20.90
2018-07-23T23:31:10.608Z,20.90
2018-07-23T23:33:39.120Z,20.90
2018-07-23T23:36:07.771Z,20.80
2018-07-23T23:38:36.394Z,20.80
2018-07-23T23:41:05.071Z,20.80
2018-07-23T23:43:33.728Z,20.80
2018-07-23T23:46:02.445Z,20.90
2018-07-23T23:48:31.137Z,20.90
2018-07-23T23:50:59.834Z,21.00
2018-07-23T23:53:28.509Z,20.90
2018-07-23T23:55:57.244Z,21.00
2018-07-23T23:58:25.920Z,21.00
